Valladolid, Spain

4:58 PM CET on March 01, 2015 (GMT +0100)
Plaza San Juan / Valladolid | Change Station
CLOSE
Current Station
Personal Weather Station
Location: Valladolid, CASTILLA Y LEóN
Elevation: 2303 ft
Nearby Weather Stations

Elev 2303 ft 41.65 °N, 4.72 °W | Updated 47 seconds ago

Scattered Clouds
Scattered Clouds
61.3 °F
Feels Like 61.3 °F
N
0.0
Wind Variable Wind from North
Gusts 2.0 mph

Today
High -- | Low -- °F
--% Chance of Precip.
Yesterday
High -- | Low -- °F
Precip. -- in
7:54 AM 7:09 PM
Waxing Gibbous, 86% visible
Pressure 30.21 in
Visibility 6.2 miles
Clouds Scattered Clouds 2500 ft
Dew Point 49 °F
Humidity 63%
Rainfall 0.00 in
Snow Depth Not available.
UV 2 out of 12
Pollen Not available.
Air Quality Not available.
Flu Activity Not available.
METAR LEVD 011530Z 25018KT 9999 SCT025 15/09 Q1023

More Conditions Fewer Conditions

Pressure 30.21 in
Visibility 6.2 miles
Clouds Scattered Clouds 2500 ft
Dew Point 49 °F
Humidity 63%
Rainfall 0.00 in
Snow Depth Not available.
UV 2 out of 12
Pollen Not available.
Air Quality Not available.
Flu Activity Not available.
METAR LEVD 011530Z 25018KT 9999 SCT025 15/09 Q1023

More Conditions Fewer Conditions

10-Day Weather Forecast

Almanac

Astronomy

Mar. 01, 2015 Rise Set
Actual Time
Civil Twilight
Nautical Twilight
Astronomical Twilight
Moon
Length of Visible Light
Length of Day
Tomorrow will be .
, % of the Moon is Illuminated

Today's Extremes

Country Highs Country Lows

Community

WunderPhotos

Upload Photos

1,801,435 photos uploaded!

WunderBlogs® & News

Nearby

Air Quality

  Air Quality AQ Index Pollutant
Not available.

Snow Depth

Station Depth Elevation

Earthquake Activity

City Distance Mag. Time & Date
Minimum magnitude displayed is 2.5.

Coastal Water Temperatures

Place Temperature

Nearby Weather Stations